createdAt,value
2019-02-04T00:03:43.675Z,14.77
2019-02-04T00:08:46.253Z,15.70
2019-02-04T00:13:48.313Z,15.47
2019-02-04T00:18:52.239Z,19.53
2019-02-04T00:23:54.160Z,22.17
2019-02-04T00:28:58.040Z,21.33
2019-02-04T00:34:00.075Z,18.87
2019-02-04T00:39:03.379Z,12.40
2019-02-04T00:44:08.430Z,19.57
2019-02-04T00:49:13.203Z,18.27
2019-02-04T00:54:15.406Z,17.47
2019-02-04T00:59:17.500Z,15.27
2019-02-04T01:04:23.025Z,28.60
2019-02-04T01:09:25.476Z,23.63
2019-02-04T01:14:27.678Z,29.63
2019-02-04T01:19:29.658Z,22.80
2019-02-04T01:24:35.658Z,19.07
2019-02-04T01:29:37.711Z,22.37
2019-02-04T01:34:39.804Z,26.03
2019-02-04T01:39:41.984Z,21.93
2019-02-04T01:44:44.056Z,18.33
2019-02-04T01:49:46.268Z,19.73
2019-02-04T01:54:48.404Z,27.07
2019-02-04T01:59:51.649Z,20.13
2019-02-04T02:04:58.748Z,29.00
2019-02-04T02:10:03.773Z,22.00
2019-02-04T02:15:10.936Z,25.13
2019-02-04T02:20:15.338Z,21.03
2019-02-04T02:25:17.345Z,22.50
2019-02-04T02:30:24.195Z,24.97
2019-02-04T02:35:26.336Z,24.70
2019-02-04T02:40:30.231Z,29.43
2019-02-04T02:45:33.232Z,21.23
2019-02-04T02:50:35.256Z,20.00
2019-02-04T02:55:39.113Z,21.83
2019-02-04T03:05:51.168Z,27.40
2019-02-04T03:10:53.222Z,22.43
2019-02-04T03:15:55.395Z,23.07
2019-02-04T03:20:57.410Z,21.07
2019-02-04T03:26:01.524Z,23.83
2019-02-04T03:31:06.352Z,28.97
2019-02-04T03:36:08.547Z,18.30
2019-02-04T03:41:10.607Z,23.37
2019-02-04T03:46:12.787Z,19.30
2019-02-04T03:51:16.954Z,24.97
2019-02-04T03:56:22.814Z,25.20
2019-02-04T04:01:24.816Z,19.53
2019-02-04T04:06:29.513Z,25.57
2019-02-04T04:11:31.530Z,23.77
2019-02-04T04:16:35.641Z,24.93
2019-02-04T04:21:37.643Z,24.17
2019-02-04T04:26:44.677Z,19.90
2019-02-04T04:31:46.689Z,21.50
2019-02-04T04:36:51.587Z,21.67
2019-02-04T04:41:53.575Z,22.97
2019-02-04T04:46:55.984Z,24.23
2019-02-04T04:51:58.015Z,22.23
2019-02-04T04:57:01.224Z,21.33
2019-02-04T05:02:10.452Z,21.40
2019-02-04T05:07:12.559Z,25.13
2019-02-04T05:12:14.735Z,25.13
2019-02-04T05:17:20.639Z,23.00
2019-02-04T05:22:22.722Z,27.23
2019-02-04T05:27:24.826Z,27.00
2019-02-04T05:32:30.018Z,23.57
2019-02-04T05:37:34.538Z,20.20
2019-02-04T05:42:40.952Z,21.43
2019-02-04T05:47:43.049Z,23.23
2019-02-04T05:52:45.343Z,17.60
2019-02-04T05:57:47.344Z,17.93
2019-02-04T06:02:49.374Z,21.23
2019-02-04T06:07:51.418Z,13.87
2019-02-04T06:12:58.882Z,15.93
2019-02-04T06:18:02.958Z,18.63
2019-02-04T06:23:07.009Z,15.53
2019-02-04T06:28:11.361Z,20.57
2019-02-04T06:33:18.734Z,15.20
2019-02-04T06:38:23.178Z,18.03
2019-02-04T06:43:27.566Z,25.57
2019-02-04T06:48:30.899Z,17.90
2019-02-04T06:53:35.920Z,20.20
2019-02-04T06:58:38.030Z,18.73
2019-02-04T07:03:41.898Z,20.63
2019-02-04T07:08:45.531Z,18.93
2019-02-04T07:13:47.648Z,19.10
2019-02-04T07:18:49.938Z,19.70
2019-02-04T07:23:55.415Z,22.73
2019-02-04T07:28:57.530Z,18.93
2019-02-04T07:34:01.801Z,17.27
2019-02-04T07:39:10.491Z,17.30
2019-02-04T07:44:12.570Z,15.40
2019-02-04T07:49:17.729Z,15.60
2019-02-04T07:54:19.883Z,14.53
2019-02-04T07:59:27.535Z,20.07
2019-02-04T08:04:29.624Z,13.67
2019-02-04T08:09:31.722Z,19.87
2019-02-04T08:14:33.883Z,16.23
2019-02-04T08:19:46.700Z,19.30
2019-02-04T08:24:41.000Z,14.60
2019-02-04T08:29:43.010Z,14.87
2019-02-04T08:34:45.247Z,15.23
2019-02-04T08:39:49.618Z,16.63
2019-02-04T08:44:53.180Z,16.83
2019-02-04T08:49:58.522Z,21.17
2019-02-04T08:54:59.465Z,15.37
2019-02-04T09:00:01.524Z,19.20
2019-02-04T09:05:04.776Z,12.17
2019-02-04T09:10:15.001Z,15.00
2019-02-04T09:15:17.701Z,14.63
2019-02-04T09:20:19.684Z,14.80
2019-02-04T09:25:21.977Z,17.13
2019-02-04T09:30:25.037Z,10.80
2019-02-04T09:35:27.207Z,10.93
2019-02-04T09:40:33.871Z,13.90
2019-02-04T09:45:42.298Z,13.83
2019-02-04T09:50:46.867Z,13.73
2019-02-04T09:55:48.883Z,14.00
2019-02-04T10:00:52.041Z,12.47
2019-02-04T10:05:54.027Z,14.93
2019-02-04T10:10:57.104Z,16.80
2019-02-04T10:15:59.484Z,12.90
2019-02-04T10:21:01.636Z,18.37
2019-02-04T10:26:03.874Z,19.73
2019-02-04T10:31:05.953Z,12.20
2019-02-04T10:36:07.990Z,15.53
2019-02-04T10:41:12.136Z,19.80
2019-02-04T10:46:14.765Z,14.07
2019-02-04T10:51:16.828Z,18.20
2019-02-04T10:56:22.406Z,12.33
2019-02-04T11:01:24.454Z,19.90
2019-02-04T11:06:26.552Z,13.80
2019-02-04T11:11:28.592Z,17.90
2019-02-04T11:16:30.822Z,14.93
2019-02-04T11:21:33.023Z,22.60
2019-02-04T11:26:35.601Z,14.33
2019-02-04T11:31:37.610Z,18.93
2019-02-04T11:36:39.687Z,18.03
2019-02-04T11:41:41.738Z,20.20
2019-02-04T11:46:43.802Z,16.13
2019-02-04T11:51:45.917Z,17.53
2019-02-04T11:56:50.720Z,18.10
2019-02-04T12:01:52.704Z,21.97
2019-02-04T12:06:54.846Z,19.20
2019-02-04T12:12:00.001Z,19.27
2019-02-04T12:17:02.037Z,13.83
2019-02-04T12:22:04.094Z,13.30
2019-02-04T12:27:10.964Z,16.63
2019-02-04T12:32:14.708Z,14.33
2019-02-04T12:37:16.736Z,17.00
2019-02-04T12:42:18.750Z,17.17
2019-02-04T12:47:20.780Z,17.40
2019-02-04T12:52:22.997Z,16.30
2019-02-04T12:57:25.404Z,17.63
2019-02-04T13:02:27.695Z,17.70
2019-02-04T13:07:39.901Z,24.20
2019-02-04T13:12:42.078Z,19.80
2019-02-04T13:17:45.327Z,18.37
2019-02-04T13:22:49.012Z,21.10
2019-02-04T13:27:51.367Z,19.70
2019-02-04T13:32:53.434Z,17.27
2019-02-04T13:38:00.078Z,17.43
2019-02-04T13:43:02.168Z,20.90
2019-02-04T13:48:04.211Z,18.63
2019-02-04T13:53:08.713Z,18.10
2019-02-04T13:58:10.706Z,15.77
2019-02-04T14:03:17.468Z,38.83
2019-02-04T14:08:20.885Z,23.63
2019-02-04T14:13:23.389Z,16.40
2019-02-04T14:18:26.638Z,21.10
2019-02-04T14:23:29.318Z,25.40
2019-02-04T14:28:34.009Z,18.30
2019-02-04T14:33:38.510Z,22.13
2019-02-04T14:38:40.707Z,22.73
2019-02-04T14:44:24.759Z,22.90
2019-02-04T14:50:04.279Z,23.73
2019-02-04T14:55:25.069Z,23.57
2019-02-04T15:01:04.846Z,22.77
2019-02-04T15:06:48.795Z,27.57
2019-02-04T15:12:21.521Z,24.43
2019-02-04T15:18:08.544Z,19.73
2019-02-04T15:23:31.204Z,25.57
2019-02-04T15:29:09.610Z,22.53
2019-02-04T15:35:04.125Z,27.80
2019-02-04T15:40:49.725Z,25.93
2019-02-04T15:46:32.325Z,18.00
2019-02-04T15:51:41.650Z,18.90
2019-02-04T15:56:43.761Z,20.30
2019-02-04T16:01:49.004Z,22.00
2019-02-04T16:06:51.097Z,20.10
2019-02-04T16:11:56.017Z,21.73
2019-02-04T16:16:58.047Z,25.33
2019-02-04T16:22:00.434Z,20.90
2019-02-04T16:27:08.711Z,27.17
2019-02-04T16:32:12.140Z,17.77
2019-02-04T16:37:14.172Z,20.13
2019-02-04T16:42:18.442Z,21.13
2019-02-04T16:47:20.599Z,22.70
2019-02-04T16:52:24.448Z,20.63
2019-02-04T16:57:27.320Z,19.67
2019-02-04T17:02:29.363Z,19.83
2019-02-04T17:07:32.443Z,25.63
2019-02-04T17:12:34.643Z,22.90
2019-02-04T17:17:36.678Z,21.27
2019-02-04T17:22:38.837Z,19.70
2019-02-04T17:27:48.124Z,20.53
2019-02-04T17:32:50.288Z,27.77
2019-02-04T17:37:53.845Z,21.40
2019-02-04T17:42:56.267Z,22.57
2019-02-04T17:48:04.862Z,22.73
2019-02-04T17:53:12.152Z,21.17
2019-02-04T17:58:14.219Z,22.30
2019-02-04T18:03:18.324Z,21.80
2019-02-04T18:08:20.369Z,30.33
2019-02-04T18:13:22.616Z,28.13
2019-02-04T18:18:24.638Z,27.37
2019-02-04T18:23:28.727Z,23.13
2019-02-04T18:28:32.772Z,26.70
2019-02-04T18:33:38.815Z,25.87
2019-02-04T18:38:43.680Z,24.27
2019-02-04T18:43:51.414Z,24.43
2019-02-04T18:48:53.432Z,27.07
2019-02-04T18:53:58.108Z,25.97
2019-02-04T18:59:00.442Z,28.95
2019-02-04T19:04:02.668Z,30.20
2019-02-04T19:09:08.326Z,31.55
2019-02-04T19:14:10.806Z,30.90
2019-02-04T19:19:14.188Z,28.10
2019-02-04T19:24:17.669Z,31.50
2019-02-04T19:29:19.710Z,31.80
2019-02-04T19:34:22.232Z,35.47
2019-02-04T19:39:26.535Z,36.60
2019-02-04T19:44:30.258Z,37.87
2019-02-04T19:49:32.372Z,35.50
2019-02-04T19:54:34.560Z,36.60
2019-02-04T19:59:36.681Z,39.63
2019-02-04T20:04:38.800Z,37.23
2019-02-04T20:09:40.849Z,39.77
2019-02-04T20:14:45.379Z,42.17
2019-02-04T20:19:47.452Z,41.00
2019-02-04T20:24:50.244Z,41.23
2019-02-04T20:29:53.282Z,48.07
2019-02-04T20:34:57.384Z,50.77
2019-02-04T20:39:59.385Z,52.23
2019-02-04T20:45:01.660Z,57.80
2019-02-04T20:50:05.521Z,57.37
2019-02-04T20:55:08.010Z,56.57
2019-02-04T21:00:15.815Z,57.23
2019-02-04T21:05:18.508Z,57.07
2019-02-04T21:10:21.547Z,57.10
2019-02-04T21:15:23.726Z,56.03
2019-02-04T21:20:25.778Z,61.53
2019-02-04T21:25:28.133Z,54.33
2019-02-04T21:30:32.555Z,54.50
2019-02-04T21:35:34.673Z,54.60
2019-02-04T21:40:39.744Z,49.67
2019-02-04T21:45:44.910Z,58.13
2019-02-04T21:50:46.935Z,52.20
2019-02-04T21:55:48.972Z,57.73
2019-02-04T22:00:50.957Z,52.43
2019-02-04T22:05:53.058Z,54.47
2019-02-04T22:10:55.524Z,51.43
2019-02-04T22:15:57.976Z,49.07
2019-02-04T22:21:00.297Z,51.30
2019-02-04T22:26:02.534Z,48.07
2019-02-04T22:31:04.693Z,50.07
2019-02-04T22:36:06.795Z,48.80
2019-02-04T22:41:08.834Z,47.27
2019-02-04T22:46:11.241Z,45.70
2019-02-04T22:51:13.259Z,50.00
2019-02-04T22:56:15.289Z,45.60
2019-02-04T23:01:43.057Z,48.57
2019-02-04T23:06:45.536Z,47.23
2019-02-04T23:11:48.778Z,51.87
2019-02-04T23:16:50.809Z,50.93
2019-02-04T23:21:54.557Z,49.53
2019-02-04T23:26:56.558Z,53.17
2019-02-04T23:31:58.568Z,51.90
2019-02-04T23:37:00.653Z,60.37
2019-02-04T23:42:03.115Z,58.77
2019-02-04T23:47:05.576Z,53.63
2019-02-04T23:52:07.839Z,53.67
2019-02-04T23:57:11.062Z,62.80
